createdAt,value
2023-02-14T00:02:07.776Z,38.25
2023-02-14T00:04:34.578Z,41.35
2023-02-14T00:07:01.333Z,39.75
2023-02-14T00:09:27.819Z,44.70
2023-02-14T00:11:54.246Z,39.20
2023-02-14T00:14:39.608Z,39.50
2023-02-14T00:17:06.070Z,40.60
2023-02-14T00:19:34.691Z,40.53
2023-02-14T00:22:01.137Z,42.83
2023-02-14T00:24:27.755Z,46.22
2023-02-14T00:26:54.521Z,49.08
2023-02-14T00:29:28.514Z,46.17
2023-02-14T00:31:55.647Z,39.22
2023-02-14T00:34:22.138Z,50.30
2023-02-14T00:36:48.989Z,44.80
2023-02-14T00:39:16.030Z,44.13
2023-02-14T00:41:42.768Z,46.33
2023-02-14T00:44:10.314Z,51.28
2023-02-14T00:46:36.842Z,46.38
2023-02-14T00:49:03.352Z,49.75
2023-02-14T00:51:30.236Z,48.60
2023-02-14T00:53:56.828Z,43.65
2023-02-14T00:56:23.252Z,40.38
2023-02-14T00:58:49.720Z,41.72
2023-02-14T01:01:16.613Z,44.45
2023-02-14T01:03:43.341Z,49.08
2023-02-14T01:06:09.888Z,44.67
2023-02-14T01:08:36.353Z,48.55
2023-02-14T01:11:21.668Z,49.80
2023-02-14T01:13:49.241Z,52.63
2023-02-14T01:16:17.350Z,46.53
2023-02-14T01:18:44.573Z,51.83
2023-02-14T01:21:13.988Z,48.65
2023-02-14T01:23:41.203Z,49.58
2023-02-14T01:26:08.071Z,47.00
2023-02-14T01:28:34.714Z,52.55
2023-02-14T01:31:11.977Z,47.80
2023-02-14T01:33:39.179Z,46.65
2023-02-14T01:36:05.786Z,48.65
2023-02-14T01:38:32.459Z,42.70
2023-02-14T01:40:59.515Z,49.60
2023-02-14T01:43:26.212Z,45.85
2023-02-14T01:45:52.889Z,47.17
2023-02-14T01:48:21.112Z,48.60
2023-02-14T01:50:48.998Z,50.38
2023-02-14T01:53:18.666Z,46.03
2023-02-14T01:55:47.615Z,49.17
2023-02-14T01:58:16.063Z,41.90
2023-02-14T02:00:59.438Z,37.28
2023-02-14T02:03:27.925Z,41.35
2023-02-14T02:05:57.537Z,40.78
2023-02-14T02:08:24.109Z,39.72
2023-02-14T02:10:50.567Z,40.08
2023-02-14T02:13:18.961Z,37.60
2023-02-14T02:16:11.772Z,39.00
2023-02-14T02:18:57.236Z,39.08
2023-02-14T02:21:33.015Z,37.80
2023-02-14T02:24:12.783Z,43.65
2023-02-14T02:26:58.231Z,42.60
2023-02-14T02:29:24.758Z,36.10
2023-02-14T02:31:51.282Z,48.42
2023-02-14T02:34:47.166Z,37.45
2023-02-14T02:37:13.604Z,34.95
2023-02-14T02:39:58.756Z,34.33
2023-02-14T02:42:34.196Z,32.17
2023-02-14T02:45:11.941Z,35.88
2023-02-14T02:47:47.088Z,34.65
2023-02-14T02:50:44.886Z,37.88
2023-02-14T02:53:21.265Z,38.15
2023-02-14T02:56:14.536Z,36.03
2023-02-14T02:58:59.818Z,39.40
2023-02-14T03:01:41.478Z,41.00
2023-02-14T03:04:29.512Z,35.72
2023-02-14T03:06:56.707Z,46.13
2023-02-14T03:09:23.127Z,38.42
2023-02-14T03:12:05.482Z,37.00
2023-02-14T03:14:35.392Z,36.42
2023-02-14T03:17:06.618Z,40.40
2023-02-14T03:20:03.482Z,34.20
2023-02-14T03:22:38.822Z,37.67
2023-02-14T03:25:17.440Z,34.90
2023-02-14T03:27:56.509Z,34.30
2023-02-14T03:30:26.158Z,35.65
2023-02-14T03:32:55.793Z,35.03
2023-02-14T03:35:25.341Z,34.20
2023-02-14T03:37:54.862Z,41.28
2023-02-14T03:40:25.230Z,36.65
2023-02-14T03:42:57.149Z,35.60
2023-02-14T03:45:27.832Z,34.80
2023-02-14T03:47:55.661Z,38.65
2023-02-14T03:50:22.146Z,35.60
2023-02-14T03:52:51.281Z,38.70
2023-02-14T03:55:20.076Z,37.90
2023-02-14T03:57:47.708Z,39.85
2023-02-14T04:00:14.828Z,36.15
2023-02-14T04:02:44.039Z,34.28
2023-02-14T04:05:16.587Z,38.30
2023-02-14T04:07:47.468Z,48.65
2023-02-14T04:10:14.311Z,41.33
2023-02-14T04:12:40.782Z,41.95
2023-02-14T04:15:07.919Z,42.38
2023-02-14T04:17:52.872Z,39.40
2023-02-14T04:20:19.416Z,41.20
2023-02-14T04:22:46.442Z,39.92
2023-02-14T04:25:13.237Z,40.83
2023-02-14T04:27:39.703Z,44.25
2023-02-14T04:30:06.734Z,39.70
2023-02-14T04:32:33.182Z,41.67
2023-02-14T04:34:59.607Z,37.03
2023-02-14T04:37:26.133Z,44.38
2023-02-14T04:39:52.597Z,42.90
2023-02-14T04:42:19.132Z,42.33
2023-02-14T04:44:45.576Z,43.35
2023-02-14T04:47:12.038Z,38.25
2023-02-14T04:49:38.504Z,38.20
2023-02-14T04:52:05.365Z,37.05
2023-02-14T04:54:32.069Z,39.88
2023-02-14T04:56:58.543Z,39.42
2023-02-14T04:59:25.647Z,40.00
2023-02-14T05:01:52.390Z,37.78
2023-02-14T05:04:19.100Z,52.20
2023-02-14T05:06:45.662Z,38.28
2023-02-14T05:09:12.103Z,42.95
2023-02-14T05:11:38.541Z,46.67
2023-02-14T05:14:05.062Z,39.30
2023-02-14T05:16:31.713Z,43.08
2023-02-14T05:18:58.209Z,42.63
2023-02-14T05:21:24.730Z,46.15
2023-02-14T05:23:51.148Z,46.15
2023-02-14T05:26:17.719Z,44.47
2023-02-14T05:28:44.237Z,45.53
2023-02-14T05:31:10.786Z,46.15
2023-02-14T05:33:37.388Z,44.35
2023-02-14T05:36:04.083Z,42.72
2023-02-14T05:38:31.055Z,44.15
2023-02-14T05:40:57.647Z,46.08
2023-02-14T05:43:24.253Z,45.38
2023-02-14T05:45:50.745Z,40.85
2023-02-14T05:48:17.282Z,45.47
2023-02-14T05:50:45.295Z,37.33
2023-02-14T05:53:12.711Z,41.22
2023-02-14T05:55:39.304Z,41.10
2023-02-14T05:58:06.017Z,41.30
2023-02-14T06:00:32.551Z,43.67
2023-02-14T06:02:58.926Z,39.40
2023-02-14T06:05:25.445Z,51.17
2023-02-14T06:07:52.376Z,63.90
2023-02-14T06:10:19.971Z,49.95
2023-02-14T06:12:47.987Z,42.92
2023-02-14T06:15:14.532Z,52.55
2023-02-14T06:17:40.986Z,46.72
2023-02-14T06:20:09.559Z,44.60
2023-02-14T06:22:36.706Z,44.22
2023-02-14T06:25:03.366Z,45.10
2023-02-14T06:27:30.546Z,50.38
2023-02-14T06:29:57.310Z,45.90
2023-02-14T06:32:24.025Z,43.95
2023-02-14T06:34:50.707Z,48.03
2023-02-14T06:37:17.142Z,62.55
2023-02-14T06:39:43.578Z,52.78
2023-02-14T06:42:10.087Z,49.95
2023-02-14T06:44:36.554Z,48.70
2023-02-14T06:47:03.018Z,49.45
2023-02-14T06:49:29.467Z,49.33
2023-02-14T06:51:55.905Z,41.33
2023-02-14T06:54:22.342Z,45.00
2023-02-14T06:56:48.773Z,43.05
2023-02-14T06:59:15.279Z,43.33
2023-02-14T07:01:41.797Z,43.80
2023-02-14T07:04:08.276Z,45.10
2023-02-14T07:06:36.452Z,70.80
2023-02-14T07:09:03.694Z,74.93
2023-02-14T07:11:30.124Z,51.38
2023-02-14T07:13:56.631Z,52.38
2023-02-14T07:16:23.255Z,53.05
2023-02-14T07:18:49.695Z,56.83
2023-02-14T07:21:16.232Z,52.63
2023-02-14T07:23:46.404Z,56.88
2023-02-14T07:26:17.933Z,54.20
2023-02-14T07:28:45.413Z,54.55
2023-02-14T07:31:12.306Z,53.65
2023-02-14T07:33:38.850Z,49.13
2023-02-14T07:36:05.888Z,51.08
2023-02-14T07:38:32.337Z,49.92
2023-02-14T07:40:59.122Z,56.33
2023-02-14T07:43:25.914Z,50.33
2023-02-14T07:45:52.413Z,53.25
2023-02-14T07:48:18.982Z,50.67
2023-02-14T07:50:45.487Z,44.15
2023-02-14T07:53:12.323Z,51.13
2023-02-14T07:55:52.749Z,48.63
2023-02-14T07:58:19.184Z,51.50
2023-02-14T08:00:46.617Z,48.08
2023-02-14T08:03:13.419Z,49.58
2023-02-14T08:05:40.101Z,49.25
2023-02-14T08:08:06.578Z,51.30
2023-02-14T08:10:33.294Z,55.63
2023-02-14T08:12:59.895Z,51.47
2023-02-14T08:15:45.683Z,48.70
2023-02-14T08:18:12.263Z,53.42
2023-02-14T08:20:38.681Z,48.35
2023-02-14T08:23:05.209Z,57.28
2023-02-14T08:25:31.660Z,55.03
2023-02-14T08:27:58.090Z,51.63
2023-02-14T08:30:24.540Z,62.00
2023-02-14T08:32:51.043Z,62.40
2023-02-14T08:35:17.546Z,56.50
2023-02-14T08:37:44.025Z,59.83
2023-02-14T08:40:10.661Z,54.28
2023-02-14T08:42:37.208Z,61.17
2023-02-14T08:45:03.934Z,62.03
2023-02-14T08:47:35.707Z,59.55
2023-02-14T08:50:02.902Z,52.45
2023-02-14T08:52:29.367Z,52.78
2023-02-14T08:54:55.851Z,54.30
2023-02-14T08:57:22.352Z,59.90
2023-02-14T08:59:48.852Z,45.80
2023-02-14T09:02:16.397Z,41.47
2023-02-14T09:04:42.850Z,37.42
2023-02-14T09:07:09.405Z,36.42
2023-02-14T09:09:35.905Z,28.77
2023-02-14T09:12:06.225Z,36.33
2023-02-14T09:14:36.686Z,49.65
2023-02-14T09:17:05.624Z,57.88
2023-02-14T09:19:32.882Z,40.35
2023-02-14T09:21:59.656Z,34.70
2023-02-14T09:24:27.735Z,29.20
2023-02-14T09:26:54.436Z,30.17
2023-02-14T09:29:20.842Z,34.22
2023-02-14T09:31:47.441Z,95.65
2023-02-14T09:34:14.163Z,32.50
2023-02-14T09:37:01.561Z,48.17
2023-02-14T09:39:28.018Z,59.25
2023-02-14T09:42:06.767Z,38.78
2023-02-14T09:45:02.620Z,32.72
2023-02-14T09:47:38.644Z,54.05
2023-02-14T09:50:06.387Z,60.15
2023-02-14T09:52:33.044Z,33.58
2023-02-14T09:55:01.259Z,33.55
2023-02-14T09:57:42.911Z,34.92
2023-02-14T10:00:15.932Z,27.30
2023-02-14T10:02:42.373Z,54.85
2023-02-14T10:05:15.015Z,47.28
2023-02-14T10:08:00.255Z,32.57
2023-02-14T10:10:26.661Z,40.20
2023-02-14T10:12:56.783Z,40.67
2023-02-14T10:15:34.340Z,33.97
2023-02-14T10:18:13.163Z,31.35
2023-02-14T10:20:43.081Z,30.52
2023-02-14T10:23:22.517Z,29.13
2023-02-14T10:25:51.810Z,31.15
2023-02-14T10:28:22.770Z,56.38
2023-02-14T10:30:54.442Z,30.13
2023-02-14T10:33:22.856Z,31.25
2023-02-14T10:35:50.905Z,34.20
2023-02-14T10:38:36.247Z,31.80
2023-02-14T10:41:06.115Z,34.80
2023-02-14T10:43:41.769Z,35.75
2023-02-14T10:46:27.062Z,36.45
2023-02-14T10:49:26.131Z,35.58
2023-02-14T10:51:55.411Z,38.03
2023-02-14T10:54:24.329Z,38.85
2023-02-14T10:56:50.750Z,39.17
2023-02-14T10:59:17.127Z,34.03
2023-02-14T11:01:43.885Z,32.05
2023-02-14T11:04:12.776Z,43.45
2023-02-14T11:06:39.244Z,36.60
2023-02-14T11:09:05.741Z,36.08
2023-02-14T11:11:32.215Z,37.70
2023-02-14T11:13:58.713Z,34.55
2023-02-14T11:16:30.229Z,39.40
2023-02-14T11:19:08.627Z,33.05
2023-02-14T11:21:39.410Z,36.03
2023-02-14T11:24:17.028Z,37.95
2023-02-14T11:26:46.520Z,35.83
2023-02-14T11:29:14.984Z,34.38
2023-02-14T11:31:42.493Z,33.15
2023-02-14T11:34:31.363Z,37.67
2023-02-14T11:36:57.862Z,43.08
2023-02-14T11:39:32.536Z,52.55
2023-02-14T11:42:01.089Z,38.75
2023-02-14T11:44:29.087Z,42.28
2023-02-14T11:46:56.661Z,36.67
2023-02-14T11:49:31.409Z,38.22
2023-02-14T11:51:59.910Z,37.28
2023-02-14T11:54:34.832Z,68.45
2023-02-14T11:57:01.267Z,37.75
2023-02-14T11:59:30.743Z,36.80
2023-02-14T12:01:58.943Z,34.50
2023-02-14T12:04:32.822Z,34.90
2023-02-14T12:07:13.956Z,43.70
2023-02-14T12:09:42.678Z,46.85
2023-02-14T12:12:17.326Z,34.72
2023-02-14T12:14:43.801Z,36.47
2023-02-14T12:17:30.340Z,42.92
2023-02-14T12:20:03.541Z,40.03
2023-02-14T12:22:33.663Z,43.33
2023-02-14T12:25:03.632Z,40.30
2023-02-14T12:27:34.192Z,35.53
2023-02-14T12:30:12.752Z,35.83
2023-02-14T12:32:43.470Z,32.25
2023-02-14T12:35:15.693Z,38.72
2023-02-14T12:38:04.429Z,35.67
2023-02-14T12:40:43.603Z,36.53
2023-02-14T12:43:19.694Z,32.40
2023-02-14T12:46:04.073Z,40.95
2023-02-14T12:48:39.854Z,35.45
2023-02-14T12:51:10.683Z,48.17
2023-02-14T12:53:55.899Z,32.72
2023-02-14T12:56:22.359Z,40.05
2023-02-14T12:58:51.801Z,35.35
2023-02-14T13:01:39.170Z,36.90
2023-02-14T13:04:25.551Z,41.45
2023-02-14T13:06:57.030Z,50.95
2023-02-14T13:09:32.090Z,70.70
2023-02-14T13:12:04.787Z,55.10
2023-02-14T13:14:34.650Z,33.23
2023-02-14T13:17:11.866Z,39.00
2023-02-14T13:19:44.171Z,34.28
2023-02-14T13:22:13.512Z,40.40
2023-02-14T13:24:45.179Z,38.00
2023-02-14T13:27:13.960Z,35.75
2023-02-14T13:29:45.576Z,42.50
2023-02-14T13:32:14.265Z,45.92
2023-02-14T13:34:46.432Z,34.22
2023-02-14T13:37:14.112Z,32.60
2023-02-14T13:39:44.054Z,37.80
2023-02-14T13:42:10.804Z,42.63
2023-02-14T13:44:44.701Z,32.88
2023-02-14T13:47:21.596Z,37.60
2023-02-14T13:50:02.136Z,38.45
2023-02-14T13:52:44.119Z,34.13
2023-02-14T13:55:19.003Z,39.83
2023-02-14T13:57:45.487Z,33.95
2023-02-14T14:00:17.743Z,41.80
2023-02-14T14:02:50.089Z,36.40
2023-02-14T14:05:32.626Z,33.75
2023-02-14T14:08:19.466Z,33.15
2023-02-14T14:10:53.532Z,31.80
2023-02-14T14:13:38.676Z,36.13
2023-02-14T14:16:26.921Z,36.40
2023-02-14T14:18:55.365Z,37.67
2023-02-14T14:21:34.132Z,37.75
2023-02-14T14:24:12.841Z,32.10
2023-02-14T14:26:42.024Z,33.42
2023-02-14T14:29:31.807Z,35.17
2023-02-14T14:31:58.525Z,33.63
2023-02-14T14:34:26.472Z,32.70
2023-02-14T14:37:06.761Z,35.22
2023-02-14T14:39:34.344Z,34.88
2023-02-14T14:42:08.536Z,36.30
2023-02-14T14:44:35.357Z,30.80
2023-02-14T14:47:02.372Z,31.67
2023-02-14T14:49:29.230Z,33.78
2023-02-14T14:51:56.889Z,34.00
2023-02-14T14:54:25.130Z,39.72
2023-02-14T14:56:56.807Z,34.28
2023-02-14T14:59:23.202Z,47.30
2023-02-14T15:01:54.433Z,31.75
2023-02-14T15:04:31.830Z,35.60
2023-02-14T15:07:16.842Z,40.22
2023-02-14T15:09:44.440Z,36.03
2023-02-14T15:12:31.483Z,38.97
2023-02-14T15:14:58.326Z,42.33
2023-02-14T15:17:24.762Z,50.15
2023-02-14T15:19:55.733Z,41.55
2023-02-14T15:22:26.645Z,37.47
2023-02-14T15:24:53.813Z,37.88
2023-02-14T15:27:22.662Z,40.40
2023-02-14T15:29:59.923Z,33.00
2023-02-14T15:32:28.078Z,35.92
2023-02-14T15:34:54.681Z,35.80
2023-02-14T15:37:21.988Z,34.00
2023-02-14T15:39:50.457Z,37.92
2023-02-14T15:42:22.895Z,38.03
2023-02-14T15:44:49.354Z,37.33
2023-02-14T15:47:16.347Z,39.58
2023-02-14T15:49:43.659Z,40.42
2023-02-14T15:52:14.338Z,40.17
2023-02-14T15:54:46.623Z,38.78
2023-02-14T15:57:39.473Z,45.65
2023-02-14T16:00:12.676Z,45.28
2023-02-14T16:02:41.234Z,46.30
2023-02-14T16:05:28.161Z,46.13
2023-02-14T16:08:22.798Z,46.85
2023-02-14T16:10:59.781Z,50.42
2023-02-14T16:13:39.296Z,51.65
2023-02-14T16:16:06.989Z,52.92
2023-02-14T16:18:33.671Z,50.70
2023-02-14T16:21:31.391Z,82.53
2023-02-14T16:24:07.190Z,153.38
2023-02-14T16:26:34.666Z,79.30
2023-02-14T16:29:04.933Z,73.82
2023-02-14T16:31:32.019Z,53.35
2023-02-14T16:33:58.903Z,55.70
2023-02-14T16:36:29.848Z,51.00
2023-02-14T16:38:57.193Z,44.25
2023-02-14T16:41:26.159Z,46.65
2023-02-14T16:43:52.928Z,47.55
2023-02-14T16:46:31.498Z,38.85
2023-02-14T16:48:58.097Z,41.13
2023-02-14T16:51:29.501Z,40.72
2023-02-14T16:53:57.774Z,39.95
2023-02-14T16:56:28.670Z,50.53
2023-02-14T16:58:57.901Z,45.67
2023-02-14T17:01:24.986Z,43.50
2023-02-14T17:03:51.408Z,51.88
2023-02-14T17:06:20.524Z,48.38
2023-02-14T17:08:47.381Z,55.55
2023-02-14T17:11:13.878Z,46.65
2023-02-14T17:13:42.155Z,43.38
2023-02-14T17:16:11.953Z,42.30
2023-02-14T17:18:38.990Z,44.20
2023-02-14T17:21:05.597Z,48.97
2023-02-14T17:23:32.035Z,47.33
2023-02-14T17:25:58.472Z,50.03
2023-02-14T17:28:26.606Z,51.92
2023-02-14T17:30:53.461Z,47.20
2023-02-14T17:33:20.186Z,42.50
2023-02-14T17:35:46.828Z,45.47
2023-02-14T17:38:13.331Z,46.75
2023-02-14T17:40:40.277Z,49.92
2023-02-14T17:43:07.260Z,44.22
2023-02-14T17:45:33.750Z,44.25
2023-02-14T17:48:01.708Z,48.40
2023-02-14T17:50:28.296Z,40.17
2023-02-14T17:52:55.399Z,49.90
2023-02-14T17:55:22.371Z,46.88
2023-02-14T17:57:52.392Z,46.33
2023-02-14T18:00:20.356Z,47.90
2023-02-14T18:02:46.856Z,50.08
2023-02-14T18:05:13.394Z,47.05
2023-02-14T18:07:40.001Z,51.22
2023-02-14T18:10:06.968Z,53.22
2023-02-14T18:12:33.483Z,53.67
2023-02-14T18:14:59.937Z,56.22
2023-02-14T18:17:26.560Z,50.70
2023-02-14T18:19:53.023Z,55.40
2023-02-14T18:22:19.461Z,59.15
2023-02-14T18:24:45.913Z,74.07
2023-02-14T18:27:15.899Z,95.00
2023-02-14T18:29:42.319Z,131.23
2023-02-14T18:32:08.815Z,153.35
2023-02-14T18:34:38.415Z,158.48
2023-02-14T18:37:06.101Z,126.97
2023-02-14T18:39:32.824Z,124.43
2023-02-14T18:42:00.900Z,130.73
2023-02-14T18:44:28.341Z,111.57
2023-02-14T18:46:54.866Z,104.75
2023-02-14T18:49:21.332Z,91.88
2023-02-14T18:51:49.151Z,96.40
2023-02-14T18:54:15.979Z,83.53
2023-02-14T18:56:42.479Z,89.57
2023-02-14T18:59:09.837Z,82.10
2023-02-14T19:01:38.245Z,86.70
2023-02-14T19:04:06.474Z,78.55
2023-02-14T19:06:34.231Z,84.57
2023-02-14T19:09:01.920Z,74.22
2023-02-14T19:11:31.520Z,79.70
2023-02-14T19:13:59.439Z,82.47
2023-02-14T19:16:28.069Z,81.20
2023-02-14T19:18:54.749Z,72.65
2023-02-14T19:21:25.499Z,75.32
2023-02-14T19:23:53.079Z,77.55
2023-02-14T19:26:20.932Z,79.30
2023-02-14T19:28:48.319Z,75.40
2023-02-14T19:31:15.511Z,80.80
2023-02-14T19:33:43.360Z,89.97
2023-02-14T19:36:12.890Z,80.70
2023-02-14T19:38:40.178Z,80.28
2023-02-14T19:41:07.084Z,78.10
2023-02-14T19:43:33.614Z,77.38
2023-02-14T19:46:00.257Z,75.93
2023-02-14T19:48:26.845Z,75.95
2023-02-14T19:50:54.183Z,69.70
2023-02-14T19:53:20.593Z,77.10
2023-02-14T19:55:47.130Z,80.00
2023-02-14T19:58:13.558Z,75.35
2023-02-14T20:00:40.029Z,74.32
2023-02-14T20:03:07.241Z,81.95
2023-02-14T20:05:36.826Z,76.28
2023-02-14T20:08:03.499Z,79.32
2023-02-14T20:10:29.979Z,77.57
2023-02-14T20:12:56.398Z,73.85
2023-02-14T20:15:22.894Z,77.88
2023-02-14T20:17:49.415Z,79.03
2023-02-14T20:20:17.135Z,78.55
2023-02-14T20:22:43.635Z,73.88
2023-02-14T20:25:10.369Z,75.70
2023-02-14T20:27:37.400Z,80.35
2023-02-14T20:30:04.725Z,76.35
2023-02-14T20:32:31.653Z,74.95
2023-02-14T20:34:58.896Z,74.85
2023-02-14T20:37:25.395Z,81.40
2023-02-14T20:39:51.819Z,78.43
2023-02-14T20:42:18.361Z,85.93
2023-02-14T20:44:45.462Z,81.80
2023-02-14T20:47:11.991Z,73.72
2023-02-14T20:49:39.125Z,74.20
2023-02-14T20:52:06.037Z,73.10
2023-02-14T20:54:32.582Z,78.63
2023-02-14T20:56:59.115Z,76.88
2023-02-14T20:59:28.850Z,76.35
2023-02-14T21:01:56.329Z,75.00
2023-02-14T21:04:22.928Z,81.35
2023-02-14T21:06:49.491Z,79.50
2023-02-14T21:09:16.206Z,79.03
2023-02-14T21:11:42.621Z,78.15
2023-02-14T21:14:09.121Z,76.05
2023-02-14T21:16:35.571Z,75.43
2023-02-14T21:19:02.102Z,73.50
2023-02-14T21:21:32.566Z,69.32
2023-02-14T21:24:00.161Z,72.15
2023-02-14T21:26:26.833Z,71.53
2023-02-14T21:28:53.338Z,72.63
2023-02-14T21:31:21.046Z,72.25
2023-02-14T21:33:55.415Z,66.05
2023-02-14T21:36:22.908Z,66.20
2023-02-14T21:38:49.692Z,68.28
2023-02-14T21:41:17.572Z,66.32
2023-02-14T21:43:44.686Z,62.20
2023-02-14T21:46:12.448Z,65.97
2023-02-14T21:49:11.258Z,68.45
2023-02-14T21:51:38.674Z,71.85
2023-02-14T21:54:05.661Z,66.72
2023-02-14T21:56:32.270Z,72.70
2023-02-14T21:58:58.709Z,66.78
2023-02-14T22:01:26.590Z,69.85
2023-02-14T22:03:53.338Z,69.18
2023-02-14T22:06:20.238Z,72.78
2023-02-14T22:08:46.839Z,68.00
2023-02-14T22:11:14.396Z,67.10
2023-02-14T22:13:41.220Z,75.90
2023-02-14T22:16:09.713Z,73.20
2023-02-14T22:18:36.207Z,78.32
2023-02-14T22:21:03.868Z,68.00
2023-02-14T22:23:31.232Z,74.50
2023-02-14T22:26:07.505Z,65.53
2023-02-14T22:28:33.960Z,71.90
2023-02-14T22:31:04.088Z,67.70
2023-02-14T22:33:31.045Z,76.00
2023-02-14T22:35:58.274Z,69.40
2023-02-14T22:38:24.749Z,71.45
2023-02-14T22:40:51.478Z,77.63
2023-02-14T22:43:17.943Z,64.93
2023-02-14T22:45:44.510Z,70.65
2023-02-14T22:48:10.962Z,75.82
2023-02-14T22:50:37.426Z,87.88
2023-02-14T22:53:03.976Z,80.13
2023-02-14T22:55:30.797Z,91.80
2023-02-14T22:57:57.343Z,85.43
2023-02-14T23:00:24.000Z,81.88
2023-02-14T23:02:50.485Z,88.93
2023-02-14T23:05:17.734Z,84.60
2023-02-14T23:07:44.207Z,88.38
2023-02-14T23:10:10.806Z,80.80
2023-02-14T23:12:55.880Z,85.15
2023-02-14T23:15:40.808Z,83.10
2023-02-14T23:18:29.099Z,83.60
2023-02-14T23:21:13.828Z,75.03
2023-02-14T23:23:40.321Z,81.47
2023-02-14T23:26:06.771Z,87.05
2023-02-14T23:28:33.257Z,77.72
2023-02-14T23:31:01.235Z,81.43
2023-02-14T23:33:27.749Z,73.50
2023-02-14T23:35:54.198Z,75.75
2023-02-14T23:38:20.603Z,74.60
2023-02-14T23:41:05.689Z,75.32
2023-02-14T23:43:32.288Z,77.43
2023-02-14T23:46:00.184Z,75.20
2023-02-14T23:48:26.914Z,72.00
2023-02-14T23:50:53.367Z,67.13
2023-02-14T23:53:19.834Z,74.53
2023-02-14T23:55:46.323Z,74.65
2023-02-14T23:58:12.781Z,75.28
